sensor_id;sensor_type;location;lat;lon;timestamp;temperature;humidity
57218;DHT22;43078;52.972;6.482;2023-04-03T00:01:03;5.90;99.90
57218;DHT22;43078;52.972;6.482;2023-04-03T00:03:29;5.90;99.90
57218;DHT22;43078;52.972;6.482;2023-04-03T00:05:54;5.90;99.90
57218;DHT22;43078;52.972;6.482;2023-04-03T00:08:20;5.80;99.90
57218;DHT22;43078;52.972;6.482;2023-04-03T00:10:46;5.80;99.90
57218;DHT22;43078;52.972;6.482;2023-04-03T00:13:12;5.80;99.90
57218;DHT22;43078;52.972;6.482;2023-04-03T00:15:39;5.70;99.90
57218;DHT22;43078;52.972;6.482;2023-04-03T00:18:05;5.70;99.90
57218;DHT22;43078;52.972;6.482;2023-04-03T00:20:31;5.70;99.90
57218;DHT22;43078;52.972;6.482;2023-04-03T00:22:57;5.60;99.90
57218;DHT22;43078;52.972;6.482;2023-04-03T00:25:22;5.60;99.90
57218;DHT22;43078;52.972;6.482;2023-04-03T00:27:48;5.60;99.90
57218;DHT22;43078;52.972;6.482;2023-04-03T00:30:16;5.50;99.90
57218;DHT22;43078;52.972;6.482;2023-04-03T00:32:42;5.50;99.90
57218;DHT22;43078;52.972;6.482;2023-04-03T00:35:08;5.50;99.90
57218;DHT22;43078;52.972;6.482;2023-04-03T00:37:35;5.40;99.90
57218;DHT22;43078;52.972;6.482;2023-04-03T00:40:01;5.40;99.90
57218;DHT22;43078;52.972;6.482;2023-04-03T00:42:27;5.40;99.90
57218;DHT22;43078;52.972;6.482;2023-04-03T00:47:18;5.30;99.90
57218;DHT22;43078;52.972;6.482;2023-04-03T00:49:44;5.30;99.90
57218;DHT22;43078;52.972;6.482;2023-04-03T00:52:13;5.20;99.90
57218;DHT22;43078;52.972;6.482;2023-04-03T00:54:41;5.20;99.90
57218;DHT22;43078;52.972;6.482;2023-04-03T00:57:08;5.20;99.90
57218;DHT22;43078;52.972;6.482;2023-04-03T00:59:42;5.10;99.90
57218;DHT22;43078;52.972;6.482;2023-04-03T01:02:10;5.20;99.90
57218;DHT22;43078;52.972;6.482;2023-04-03T01:04:39;5.10;99.90
57218;DHT22;43078;52.972;6.482;2023-04-03T01:07:12;5.00;99.90
57218;DHT22;43078;52.972;6.482;2023-04-03T01:09:39;5.00;99.90
57218;DHT22;43078;52.972;6.482;2023-04-03T01:12:26;5.00;99.90
57218;DHT22;43078;52.972;6.482;2023-04-03T01:14:54;5.00;99.90
57218;DHT22;43078;52.972;6.482;2023-04-03T01:25:26;4.90;99.90
57218;DHT22;43078;52.972;6.482;2023-04-03T01:27:52;4.90;99.90
57218;DHT22;43078;52.972;6.482;2023-04-03T01:30:20;4.90;99.90
57218;DHT22;43078;52.972;6.482;2023-04-03T01:32:45;4.90;99.90
57218;DHT22;43078;52.972;6.482;2023-04-03T01:35:12;4.80;99.90
57218;DHT22;43078;52.972;6.482;2023-04-03T01:37:38;4.80;99.90
57218;DHT22;43078;52.972;6.482;2023-04-03T01:40:04;4.80;99.90
57218;DHT22;43078;52.972;6.482;2023-04-03T01:42:29;4.80;99.90
57218;DHT22;43078;52.972;6.482;2023-04-03T01:44:55;4.70;99.90
57218;DHT22;43078;52.972;6.482;2023-04-03T01:47:21;4.70;99.90
57218;DHT22;43078;52.972;6.482;2023-04-03T01:49:47;4.70;99.90
57218;DHT22;43078;52.972;6.482;2023-04-03T01:52:13;4.60;99.90
57218;DHT22;43078;52.972;6.482;2023-04-03T01:54:38;4.60;99.90
57218;DHT22;43078;52.972;6.482;2023-04-03T01:57:04;4.60;99.90
57218;DHT22;43078;52.972;6.482;2023-04-03T01:59:30;4.60;99.90
57218;DHT22;43078;52.972;6.482;2023-04-03T02:01:55;4.50;99.90
57218;DHT22;43078;52.972;6.482;2023-04-03T02:04:21;4.50;99.90
57218;DHT22;43078;52.972;6.482;2023-04-03T02:06:46;4.50;99.90
57218;DHT22;43078;52.972;6.482;2023-04-03T02:09:12;4.40;99.90
57218;DHT22;43078;52.972;6.482;2023-04-03T02:11:38;4.40;99.90
57218;DHT22;43078;52.972;6.482;2023-04-03T02:14:03;4.40;99.90
57218;DHT22;43078;52.972;6.482;2023-04-03T02:16:29;4.30;99.90
57218;DHT22;43078;52.972;6.482;2023-04-03T02:18:56;4.30;99.90
57218;DHT22;43078;52.972;6.482;2023-04-03T02:21:21;4.30;99.90
57218;DHT22;43078;52.972;6.482;2023-04-03T02:23:47;4.20;99.90
57218;DHT22;43078;52.972;6.482;2023-04-03T02:26:14;4.20;99.90
57218;DHT22;43078;52.972;6.482;2023-04-03T02:28:40;4.20;99.90
57218;DHT22;43078;52.972;6.482;2023-04-03T02:31:09;4.10;99.90
57218;DHT22;43078;52.972;6.482;2023-04-03T02:33:35;4.10;99.90
57218;DHT22;43078;52.972;6.482;2023-04-03T02:36:03;4.10;99.90
57218;DHT22;43078;52.972;6.482;2023-04-03T02:38:29;4.10;99.90
57218;DHT22;43078;52.972;6.482;2023-04-03T02:41:03;4.10;99.90
57218;DHT22;43078;52.972;6.482;2023-04-03T02:43:29;4.00;99.90
57218;DHT22;43078;52.972;6.482;2023-04-03T02:45:55;4.00;99.90
57218;DHT22;43078;52.972;6.482;2023-04-03T02:48:22;4.00;99.90
57218;DHT22;43078;52.972;6.482;2023-04-03T02:50:48;3.90;99.90
57218;DHT22;43078;52.972;6.482;2023-04-03T02:53:13;3.90;99.90
57218;DHT22;43078;52.972;6.482;2023-04-03T02:55:40;3.90;99.90
57218;DHT22;43078;52.972;6.482;2023-04-03T02:58:06;3.80;99.90
57218;DHT22;43078;52.972;6.482;2023-04-03T03:00:32;3.80;99.90
57218;DHT22;43078;52.972;6.482;2023-04-03T03:02:57;3.80;99.90
57218;DHT22;43078;52.972;6.482;2023-04-03T03:05:23;3.80;99.90
57218;DHT22;43078;52.972;6.482;2023-04-03T03:07:49;3.70;99.90
57218;DHT22;43078;52.972;6.482;2023-04-03T03:10:14;3.70;99.90
57218;DHT22;43078;52.972;6.482;2023-04-03T03:12:40;3.70;99.90
57218;DHT22;43078;52.972;6.482;2023-04-03T03:15:07;3.70;99.90
57218;DHT22;43078;52.972;6.482;2023-04-03T03:17:32;3.70;99.90
57218;DHT22;43078;52.972;6.482;2023-04-03T03:19:58;3.60;99.90
57218;DHT22;43078;52.972;6.482;2023-04-03T03:22:25;3.60;99.90
57218;DHT22;43078;52.972;6.482;2023-04-03T03:24:51;3.60;99.90
57218;DHT22;43078;52.972;6.482;2023-04-03T03:27:16;3.60;99.90
57218;DHT22;43078;52.972;6.482;2023-04-03T03:29:42;3.50;99.90
57218;DHT22;43078;52.972;6.482;2023-04-03T03:32:08;3.50;99.90
57218;DHT22;43078;52.972;6.482;2023-04-03T03:34:33;3.50;99.90
57218;DHT22;43078;52.972;6.482;2023-04-03T03:36:59;3.50;99.90
57218;DHT22;43078;52.972;6.482;2023-04-03T03:39:25;3.50;99.90
57218;DHT22;43078;52.972;6.482;2023-04-03T03:41:50;3.50;99.90
57218;DHT22;43078;52.972;6.482;2023-04-03T03:44:19;3.50;99.90
57218;DHT22;43078;52.972;6.482;2023-04-03T03:46:44;3.50;99.90
57218;DHT22;43078;52.972;6.482;2023-04-03T03:49:10;3.50;99.90
57218;DHT22;43078;52.972;6.482;2023-04-03T03:51:37;3.40;99.90
57218;DHT22;43078;52.972;6.482;2023-04-03T03:54:03;3.40;99.90
57218;DHT22;43078;52.972;6.482;2023-04-03T03:56:29;3.40;99.90
57218;DHT22;43078;52.972;6.482;2023-04-03T03:58:55;3.40;99.90
57218;DHT22;43078;52.972;6.482;2023-04-03T04:01:24;3.40;99.90
57218;DHT22;43078;52.972;6.482;2023-04-03T04:03:51;3.40;99.90
57218;DHT22;43078;52.972;6.482;2023-04-03T04:06:16;3.30;99.90
57218;DHT22;43078;52.972;6.482;2023-04-03T04:08:42;3.30;99.90
57218;DHT22;43078;52.972;6.482;2023-04-03T04:11:08;3.30;99.90
57218;DHT22;43078;52.972;6.482;2023-04-03T04:13:34;3.30;99.90
57218;DHT22;43078;52.972;6.482;2023-04-03T04:16:00;3.30;99.90
57218;DHT22;43078;52.972;6.482;2023-04-03T04:18:25;3.30;99.90
57218;DHT22;43078;52.972;6.482;2023-04-03T04:20:51;3.30;99.90
57218;DHT22;43078;52.972;6.482;2023-04-03T04:23:18;3.20;99.90
57218;DHT22;43078;52.972;6.482;2023-04-03T04:25:47;3.20;99.90
57218;DHT22;43078;52.972;6.482;2023-04-03T04:28:14;3.20;99.90
57218;DHT22;43078;52.972;6.482;2023-04-03T04:30:40;3.10;99.90
57218;DHT22;43078;52.972;6.482;2023-04-03T04:33:06;3.10;99.90
57218;DHT22;43078;52.972;6.482;2023-04-03T04:35:33;3.10;99.90
57218;DHT22;43078;52.972;6.482;2023-04-03T04:37:58;3.10;99.90
57218;DHT22;43078;52.972;6.482;2023-04-03T04:40:24;3.10;99.90
57218;DHT22;43078;52.972;6.482;2023-04-03T04:42:50;3.00;99.90
57218;DHT22;43078;52.972;6.482;2023-04-03T04:45:15;3.00;99.90
57218;DHT22;43078;52.972;6.482;2023-04-03T04:47:41;2.90;99.90
57218;DHT22;43078;52.972;6.482;2023-04-03T04:50:07;2.90;99.90
57218;DHT22;43078;52.972;6.482;2023-04-03T04:52:33;2.90;99.90
57218;DHT22;43078;52.972;6.482;2023-04-03T04:54:59;2.80;99.90
57218;DHT22;43078;52.972;6.482;2023-04-03T04:57:25;2.80;99.90
57218;DHT22;43078;52.972;6.482;2023-04-03T04:59:50;2.80;99.90
57218;DHT22;43078;52.972;6.482;2023-04-03T05:02:16;2.80;99.90
57218;DHT22;43078;52.972;6.482;2023-04-03T05:04:42;2.70;99.90
57218;DHT22;43078;52.972;6.482;2023-04-03T05:07:07;2.70;99.90
57218;DHT22;43078;52.972;6.482;2023-04-03T05:09:33;2.60;99.90
57218;DHT22;43078;52.972;6.482;2023-04-03T05:11:59;2.60;99.90
57218;DHT22;43078;52.972;6.482;2023-04-03T05:14:25;2.60;99.90
57218;DHT22;43078;52.972;6.482;2023-04-03T05:16:50;2.60;99.90
57218;DHT22;43078;52.972;6.482;2023-04-03T05:19:20;2.60;99.90
57218;DHT22;43078;52.972;6.482;2023-04-03T05:21:46;2.50;99.90
57218;DHT22;43078;52.972;6.482;2023-04-03T05:24:11;2.50;99.90
57218;DHT22;43078;52.972;6.482;2023-04-03T05:26:37;2.50;99.90
57218;DHT22;43078;52.972;6.482;2023-04-03T05:29:04;2.50;99.90
57218;DHT22;43078;52.972;6.482;2023-04-03T05:31:29;2.50;99.90
57218;DHT22;43078;52.972;6.482;2023-04-03T05:33:56;2.40;99.90
57218;DHT22;43078;52.972;6.482;2023-04-03T05:36:22;2.40;99.90
57218;DHT22;43078;52.972;6.482;2023-04-03T05:38:47;2.40;99.90
57218;DHT22;43078;52.972;6.482;2023-04-03T05:41:14;2.40;99.90
57218;DHT22;43078;52.972;6.482;2023-04-03T05:43:40;2.40;99.90
57218;DHT22;43078;52.972;6.482;2023-04-03T05:46:13;2.40;99.90
57218;DHT22;43078;52.972;6.482;2023-04-03T05:48:40;2.40;99.90
57218;DHT22;43078;52.972;6.482;2023-04-03T05:51:06;2.30;99.90
57218;DHT22;43078;52.972;6.482;2023-04-03T05:53:35;2.30;99.90
57218;DHT22;43078;52.972;6.482;2023-04-03T05:56:03;2.30;99.90
57218;DHT22;43078;52.972;6.482;2023-04-03T05:58:28;2.30;99.90
57218;DHT22;43078;52.972;6.482;2023-04-03T06:00:54;2.30;99.90
57218;DHT22;43078;52.972;6.482;2023-04-03T06:03:20;2.30;99.90
57218;DHT22;43078;52.972;6.482;2023-04-03T06:05:46;2.30;99.90
57218;DHT22;43078;52.972;6.482;2023-04-03T06:08:11;2.30;99.90
57218;DHT22;43078;52.972;6.482;2023-04-03T06:10:38;2.30;99.90
57218;DHT22;43078;52.972;6.482;2023-04-03T06:13:03;2.30;99.90
57218;DHT22;43078;52.972;6.482;2023-04-03T06:15:29;2.30;99.90
57218;DHT22;43078;52.972;6.482;2023-04-03T06:17:55;2.30;99.90
57218;DHT22;43078;52.972;6.482;2023-04-03T06:20:21;2.30;99.90
57218;DHT22;43078;52.972;6.482;2023-04-03T06:22:47;2.30;99.90
57218;DHT22;43078;52.972;6.482;2023-04-03T06:25:13;2.30;99.90
57218;DHT22;43078;52.972;6.482;2023-04-03T06:27:40;2.30;99.90
57218;DHT22;43078;52.972;6.482;2023-04-03T06:30:06;2.30;99.90
57218;DHT22;43078;52.972;6.482;2023-04-03T06:32:32;2.30;99.90
57218;DHT22;43078;52.972;6.482;2023-04-03T06:34:58;2.30;99.90
57218;DHT22;43078;52.972;6.482;2023-04-03T06:37:24;2.30;99.90
57218;DHT22;43078;52.972;6.482;2023-04-03T06:39:54;2.40;99.90
57218;DHT22;43078;52.972;6.482;2023-04-03T06:42:20;2.40;99.90
57218;DHT22;43078;52.972;6.482;2023-04-03T06:44:46;2.40;99.90
57218;DHT22;43078;52.972;6.482;2023-04-03T06:47:14;2.40;99.90
57218;DHT22;43078;52.972;6.482;2023-04-03T06:49:40;2.50;99.90
57218;DHT22;43078;52.972;6.482;2023-04-03T06:52:07;2.50;99.90
57218;DHT22;43078;52.972;6.482;2023-04-03T06:54:32;2.50;99.90
57218;DHT22;43078;52.972;6.482;2023-04-03T06:56:58;2.60;99.90
57218;DHT22;43078;52.972;6.482;2023-04-03T06:59:24;2.70;99.90
57218;DHT22;43078;52.972;6.482;2023-04-03T07:01:50;2.70;99.90
57218;DHT22;43078;52.972;6.482;2023-04-03T07:04:16;2.80;99.90
57218;DHT22;43078;52.972;6.482;2023-04-03T07:06:42;2.80;99.90
57218;DHT22;43078;52.972;6.482;2023-04-03T07:09:08;2.90;99.90
57218;DHT22;43078;52.972;6.482;2023-04-03T07:11:35;3.00;99.90
57218;DHT22;43078;52.972;6.482;2023-04-03T07:14:02;3.10;99.90
57218;DHT22;43078;52.972;6.482;2023-04-03T07:16:27;3.10;99.90
57218;DHT22;43078;52.972;6.482;2023-04-03T07:18:53;3.20;99.90
57218;DHT22;43078;52.972;6.482;2023-04-03T07:21:19;3.30;99.90
57218;DHT22;43078;52.972;6.482;2023-04-03T07:23:44;3.40;99.90
57218;DHT22;43078;52.972;6.482;2023-04-03T07:26:10;3.40;99.90
57218;DHT22;43078;52.972;6.482;2023-04-03T07:28:36;3.50;99.90
57218;DHT22;43078;52.972;6.482;2023-04-03T07:31:05;3.60;99.90
57218;DHT22;43078;52.972;6.482;2023-04-03T07:33:34;3.70;99.90
57218;DHT22;43078;52.972;6.482;2023-04-03T07:36:01;3.80;99.90
57218;DHT22;43078;52.972;6.482;2023-04-03T07:38:27;3.90;99.90
57218;DHT22;43078;52.972;6.482;2023-04-03T07:40:53;4.00;99.90
57218;DHT22;43078;52.972;6.482;2023-04-03T07:43:20;4.00;99.90
57218;DHT22;43078;52.972;6.482;2023-04-03T07:45:46;4.20;99.90
57218;DHT22;43078;52.972;6.482;2023-04-03T07:48:15;4.30;99.90
57218;DHT22;43078;52.972;6.482;2023-04-03T07:50:42;4.40;99.90
57218;DHT22;43078;52.972;6.482;2023-04-03T07:53:07;4.50;99.90
57218;DHT22;43078;52.972;6.482;2023-04-03T07:55:33;4.60;99.90
57218;DHT22;43078;52.972;6.482;2023-04-03T07:57:59;4.70;99.90
57218;DHT22;43078;52.972;6.482;2023-04-03T08:00:25;4.80;99.90
57218;DHT22;43078;52.972;6.482;2023-04-03T08:02:51;4.90;99.90
57218;DHT22;43078;52.972;6.482;2023-04-03T08:05:18;4.90;99.90
57218;DHT22;43078;52.972;6.482;2023-04-03T08:07:44;5.00;99.90
57218;DHT22;43078;52.972;6.482;2023-04-03T08:10:10;5.10;99.90
57218;DHT22;43078;52.972;6.482;2023-04-03T08:12:36;5.20;99.90
57218;DHT22;43078;52.972;6.482;2023-04-03T08:15:03;5.20;99.90
57218;DHT22;43078;52.972;6.482;2023-04-03T08:17:29;5.30;99.90
57218;DHT22;43078;52.972;6.482;2023-04-03T08:19:55;5.40;99.90
57218;DHT22;43078;52.972;6.482;2023-04-03T08:22:20;5.50;99.90
57218;DHT22;43078;52.972;6.482;2023-04-03T08:24:46;5.50;99.90
57218;DHT22;43078;52.972;6.482;2023-04-03T08:27:12;5.60;99.90
57218;DHT22;43078;52.972;6.482;2023-04-03T08:29:37;5.70;99.90
57218;DHT22;43078;52.972;6.482;2023-04-03T08:32:04;5.80;99.90
57218;DHT22;43078;52.972;6.482;2023-04-03T08:34:30;5.80;99.90
57218;DHT22;43078;52.972;6.482;2023-04-03T08:36:56;5.90;99.90
57218;DHT22;43078;52.972;6.482;2023-04-03T08:39:21;6.00;99.90
57218;DHT22;43078;52.972;6.482;2023-04-03T08:41:47;6.00;99.90
57218;DHT22;43078;52.972;6.482;2023-04-03T08:49:31;6.30;99.90
57218;DHT22;43078;52.972;6.482;2023-04-03T08:51:59;6.40;99.90
57218;DHT22;43078;52.972;6.482;2023-04-03T08:54:49;6.40;99.90
57218;DHT22;43078;52.972;6.482;2023-04-03T08:57:16;6.50;99.90
57218;DHT22;43078;52.972;6.482;2023-04-03T08:59:42;6.60;99.90
57218;DHT22;43078;52.972;6.482;2023-04-03T09:02:25;6.70;99.90
57218;DHT22;43078;52.972;6.482;2023-04-03T09:04:52;6.70;99.90
57218;DHT22;43078;52.972;6.482;2023-04-03T09:07:30;6.80;99.90
57218;DHT22;43078;52.972;6.482;2023-04-03T09:10:00;6.90;99.90
57218;DHT22;43078;52.972;6.482;2023-04-03T09:12:39;7.00;99.90
57218;DHT22;43078;52.972;6.482;2023-04-03T09:15:23;7.10;99.90
57218;DHT22;43078;52.972;6.482;2023-04-03T09:17:53;7.20;99.90
57218;DHT22;43078;52.972;6.482;2023-04-03T09:20:46;7.30;99.90
57218;DHT22;43078;52.972;6.482;2023-04-03T09:23:20;7.30;99.90
57218;DHT22;43078;52.972;6.482;2023-04-03T09:25:50;7.40;99.90
57218;DHT22;43078;52.972;6.482;2023-04-03T09:28:19;7.50;99.90
57218;DHT22;43078;52.972;6.482;2023-04-03T09:30:45;7.60;99.90
57218;DHT22;43078;52.972;6.482;2023-04-03T09:33:12;7.60;99.90
57218;DHT22;43078;52.972;6.482;2023-04-03T09:35:40;7.70;99.90
57218;DHT22;43078;52.972;6.482;2023-04-03T09:41:21;7.90;99.90
57218;DHT22;43078;52.972;6.482;2023-04-03T09:43:33;8.00;99.90
57218;DHT22;43078;52.972;6.482;2023-04-03T09:46:30;8.10;99.90
57218;DHT22;43078;52.972;6.482;2023-04-03T09:49:04;8.10;99.90
57218;DHT22;43078;52.972;6.482;2023-04-03T09:51:31;8.20;99.90
57218;DHT22;43078;52.972;6.482;2023-04-03T09:53:58;8.30;99.90
57218;DHT22;43078;52.972;6.482;2023-04-03T09:56:29;8.40;99.90
57218;DHT22;43078;52.972;6.482;2023-04-03T10:01:28;8.50;99.90
57218;DHT22;43078;52.972;6.482;2023-04-03T10:06:48;8.70;99.90
57218;DHT22;43078;52.972;6.482;2023-04-03T10:09:32;8.70;99.90
57218;DHT22;43078;52.972;6.482;2023-04-03T10:12:12;8.80;99.90
57218;DHT22;43078;52.972;6.482;2023-04-03T10:20:25;9.10;99.90
57218;DHT22;43078;52.972;6.482;2023-04-03T10:28:55;9.30;99.90
57218;DHT22;43078;52.972;6.482;2023-04-03T10:34:06;9.50;99.90
57218;DHT22;43078;52.972;6.482;2023-04-03T10:42:04;9.70;99.90
57218;DHT22;43078;52.972;6.482;2023-04-03T10:47:21;9.80;99.90
57218;DHT22;43078;52.972;6.482;2023-04-03T10:55:54;10.00;99.90
57218;DHT22;43078;52.972;6.482;2023-04-03T10:58:44;10.10;99.90
57218;DHT22;43078;52.972;6.482;2023-04-03T11:01:18;10.20;99.90
57218;DHT22;43078;52.972;6.482;2023-04-03T11:03:56;10.30;99.90
57218;DHT22;43078;52.972;6.482;2023-04-03T11:06:25;10.30;99.90
57218;DHT22;43078;52.972;6.482;2023-04-03T11:09:02;10.40;99.90
57218;DHT22;43078;52.972;6.482;2023-04-03T11:11:36;10.40;99.90
57218;DHT22;43078;52.972;6.482;2023-04-03T11:14:09;10.50;99.90
57218;DHT22;43078;52.972;6.482;2023-04-03T11:16:43;10.50;99.90
57218;DHT22;43078;52.972;6.482;2023-04-03T11:19:21;10.60;99.90
57218;DHT22;43078;52.972;6.482;2023-04-03T11:22:05;10.70;99.90
57218;DHT22;43078;52.972;6.482;2023-04-03T11:24:36;10.70;99.90
57218;DHT22;43078;52.972;6.482;2023-04-03T11:27:04;10.70;99.70
57218;DHT22;43078;52.972;6.482;2023-04-03T11:29:41;10.80;99.90
57218;DHT22;43078;52.972;6.482;2023-04-03T11:32:27;10.80;99.90
57218;DHT22;43078;52.972;6.482;2023-04-03T11:34:57;10.90;99.90
57218;DHT22;43078;52.972;6.482;2023-04-03T11:40:39;11.00;99.90
57218;DHT22;43078;52.972;6.482;2023-04-03T11:42:52;11.10;99.90
57218;DHT22;43078;52.972;6.482;2023-04-03T12:16:25;11.70;99.90
57218;DHT22;43078;52.972;6.482;2023-04-03T12:24:23;11.80;99.90
57218;DHT22;43078;52.972;6.482;2023-04-03T12:32:26;12.00;99.90
57218;DHT22;43078;52.972;6.482;2023-04-03T12:35:09;12.00;99.90
57218;DHT22;43078;52.972;6.482;2023-04-03T12:43:53;12.10;99.90
57218;DHT22;43078;52.972;6.482;2023-04-03T12:46:23;12.10;98.30
57218;DHT22;43078;52.972;6.482;2023-04-03T12:48:58;12.10;99.30
57218;DHT22;43078;52.972;6.482;2023-04-03T12:51:42;12.10;99.80
57218;DHT22;43078;52.972;6.482;2023-04-03T12:54:22;12.20;99.90
57218;DHT22;43078;52.972;6.482;2023-04-03T12:56:49;12.20;99.60
57218;DHT22;43078;52.972;6.482;2023-04-03T12:59:25;12.30;99.90
57218;DHT22;43078;52.972;6.482;2023-04-03T13:01:57;12.30;99.80
57218;DHT22;43078;52.972;6.482;2023-04-03T13:04:23;12.30;99.50
57218;DHT22;43078;52.972;6.482;2023-04-03T13:06:50;12.40;99.90
57218;DHT22;43078;52.972;6.482;2023-04-03T13:09:30;12.40;99.80
57218;DHT22;43078;52.972;6.482;2023-04-03T13:12:15;12.50;99.60
57218;DHT22;43078;52.972;6.482;2023-04-03T13:14:55;12.40;99.30
57218;DHT22;43078;52.972;6.482;2023-04-03T13:17:21;12.50;99.70
57218;DHT22;43078;52.972;6.482;2023-04-03T13:19:47;12.50;99.60
57218;DHT22;43078;52.972;6.482;2023-04-03T13:22:21;12.50;99.90
57218;DHT22;43078;52.972;6.482;2023-04-03T13:24:51;12.50;99.90
57218;DHT22;43078;52.972;6.482;2023-04-03T13:27:17;12.60;99.90
57218;DHT22;43078;52.972;6.482;2023-04-03T13:29:50;12.60;99.80
57218;DHT22;43078;52.972;6.482;2023-04-03T13:32:23;12.60;99.80
57218;DHT22;43078;52.972;6.482;2023-04-03T13:34:50;12.70;99.60
57218;DHT22;43078;52.972;6.482;2023-04-03T13:42:35;12.80;99.10
57218;DHT22;43078;52.972;6.482;2023-04-03T13:47:41;12.70;98.20
57218;DHT22;43078;52.972;6.482;2023-04-03T13:50:25;12.70;99.00
57218;DHT22;43078;52.972;6.482;2023-04-03T13:53:01;12.80;99.10
57218;DHT22;43078;52.972;6.482;2023-04-03T13:55:30;12.80;98.60
57218;DHT22;43078;52.972;6.482;2023-04-03T13:58:02;12.80;98.00
57218;DHT22;43078;52.972;6.482;2023-04-03T14:03:22;12.80;97.50
57218;DHT22;43078;52.972;6.482;2023-04-03T14:05:49;12.80;97.90
57218;DHT22;43078;52.972;6.482;2023-04-03T14:08:14;12.80;98.10
57218;DHT22;43078;52.972;6.482;2023-04-03T14:10:42;12.80;98.20
57218;DHT22;43078;52.972;6.482;2023-04-03T14:13:13;12.90;98.60
57218;DHT22;43078;52.972;6.482;2023-04-03T14:15:40;12.80;98.40
57218;DHT22;43078;52.972;6.482;2023-04-03T14:18:11;12.80;98.20
57218;DHT22;43078;52.972;6.482;2023-04-03T14:20:37;12.80;97.90
57218;DHT22;43078;52.972;6.482;2023-04-03T14:23:02;12.80;97.90
57218;DHT22;43078;52.972;6.482;2023-04-03T14:25:28;12.80;97.80
57218;DHT22;43078;52.972;6.482;2023-04-03T14:27:55;12.90;97.90
57218;DHT22;43078;52.972;6.482;2023-04-03T14:30:30;12.90;96.90
57218;DHT22;43078;52.972;6.482;2023-04-03T14:32:57;12.90;96.90
57218;DHT22;43078;52.972;6.482;2023-04-03T14:35:23;12.90;97.00
57218;DHT22;43078;52.972;6.482;2023-04-03T14:37:51;12.90;97.10
57218;DHT22;43078;52.972;6.482;2023-04-03T14:40:20;12.90;97.30
57218;DHT22;43078;52.972;6.482;2023-04-03T14:42:46;12.90;96.90
57218;DHT22;43078;52.972;6.482;2023-04-03T14:45:14;13.00;96.80
57218;DHT22;43078;52.972;6.482;2023-04-03T14:47:49;13.00;97.10
57218;DHT22;43078;52.972;6.482;2023-04-03T14:50:18;13.00;97.10
57218;DHT22;43078;52.972;6.482;2023-04-03T14:52:48;13.00;97.10
57218;DHT22;43078;52.972;6.482;2023-04-03T14:55:20;13.00;97.10
57218;DHT22;43078;52.972;6.482;2023-04-03T14:57:46;13.00;96.50
57218;DHT22;43078;52.972;6.482;2023-04-03T15:00:20;13.00;96.90
57218;DHT22;43078;52.972;6.482;2023-04-03T15:02:46;12.90;97.30
57218;DHT22;43078;52.972;6.482;2023-04-03T15:05:13;13.00;98.10
57218;DHT22;43078;52.972;6.482;2023-04-03T15:07:42;13.00;98.50
57218;DHT22;43078;52.972;6.482;2023-04-03T15:10:21;13.10;98.70
57218;DHT22;43078;52.972;6.482;2023-04-03T15:12:48;13.10;97.80
57218;DHT22;43078;52.972;6.482;2023-04-03T15:15:23;13.10;98.20
57218;DHT22;43078;52.972;6.482;2023-04-03T15:18:19;13.10;98.30
57218;DHT22;43078;52.972;6.482;2023-04-03T15:20:45;13.10;98.60
57218;DHT22;43078;52.972;6.482;2023-04-03T15:23:13;13.20;99.00
57218;DHT22;43078;52.972;6.482;2023-04-03T15:25:44;13.20;98.30
57218;DHT22;43078;52.972;6.482;2023-04-03T15:30:56;13.20;98.80
57218;DHT22;43078;52.972;6.482;2023-04-03T15:33:22;13.30;99.20
57218;DHT22;43078;52.972;6.482;2023-04-03T15:35:48;13.30;99.40
57218;DHT22;43078;52.972;6.482;2023-04-03T15:38:14;13.30;99.20
57218;DHT22;43078;52.972;6.482;2023-04-03T15:40:39;13.40;98.90
57218;DHT22;43078;52.972;6.482;2023-04-03T15:43:06;13.30;98.20
57218;DHT22;43078;52.972;6.482;2023-04-03T15:45:33;13.30;98.60
57218;DHT22;43078;52.972;6.482;2023-04-03T15:48:00;13.40;99.70
57218;DHT22;43078;52.972;6.482;2023-04-03T15:50:26;13.40;99.90
57218;DHT22;43078;52.972;6.482;2023-04-03T15:52:52;13.40;99.90
57218;DHT22;43078;52.972;6.482;2023-04-03T15:55:25;13.40;99.90
57218;DHT22;43078;52.972;6.482;2023-04-03T15:57:52;13.40;99.90
57218;DHT22;43078;52.972;6.482;2023-04-03T16:00:18;13.50;99.90
57218;DHT22;43078;52.972;6.482;2023-04-03T16:02:47;13.40;99.90
57218;DHT22;43078;52.972;6.482;2023-04-03T16:05:15;13.40;99.90
57218;DHT22;43078;52.972;6.482;2023-04-03T16:07:42;13.50;99.90
57218;DHT22;43078;52.972;6.482;2023-04-03T16:10:09;13.50;99.90
57218;DHT22;43078;52.972;6.482;2023-04-03T16:12:35;13.50;99.90
57218;DHT22;43078;52.972;6.482;2023-04-03T16:15:02;13.50;99.90
57218;DHT22;43078;52.972;6.482;2023-04-03T16:17:28;13.50;99.90
57218;DHT22;43078;52.972;6.482;2023-04-03T16:19:54;13.60;99.90
57218;DHT22;43078;52.972;6.482;2023-04-03T16:22:21;13.50;99.90
57218;DHT22;43078;52.972;6.482;2023-04-03T16:24:49;13.50;99.90
57218;DHT22;43078;52.972;6.482;2023-04-03T16:27:16;13.50;99.90
57218;DHT22;43078;52.972;6.482;2023-04-03T16:29:42;13.50;99.90
57218;DHT22;43078;52.972;6.482;2023-04-03T16:32:08;13.50;99.90
57218;DHT22;43078;52.972;6.482;2023-04-03T16:34:34;13.50;99.90
57218;DHT22;43078;52.972;6.482;2023-04-03T16:37:00;13.60;99.90
57218;DHT22;43078;52.972;6.482;2023-04-03T16:39:26;13.60;99.90
57218;DHT22;43078;52.972;6.482;2023-04-03T16:41:52;13.60;99.90
57218;DHT22;43078;52.972;6.482;2023-04-03T16:44:17;13.60;99.90
57218;DHT22;43078;52.972;6.482;2023-04-03T16:46:43;13.60;99.90
57218;DHT22;43078;52.972;6.482;2023-04-03T16:49:09;13.70;99.90
57218;DHT22;43078;52.972;6.482;2023-04-03T16:51:34;13.70;99.90
57218;DHT22;43078;52.972;6.482;2023-04-03T16:54:00;13.70;99.90
57218;DHT22;43078;52.972;6.482;2023-04-03T16:56:26;13.60;99.90
57218;DHT22;43078;52.972;6.482;2023-04-03T16:58:54;13.70;99.90
57218;DHT22;43078;52.972;6.482;2023-04-03T17:01:21;13.70;99.90
57218;DHT22;43078;52.972;6.482;2023-04-03T17:03:47;13.70;99.90
57218;DHT22;43078;52.972;6.482;2023-04-03T17:06:17;13.60;99.90
57218;DHT22;43078;52.972;6.482;2023-04-03T17:08:45;13.70;99.90
57218;DHT22;43078;52.972;6.482;2023-04-03T17:11:11;13.60;99.90
57218;DHT22;43078;52.972;6.482;2023-04-03T17:13:37;13.60;99.90
57218;DHT22;43078;52.972;6.482;2023-04-03T17:16:05;13.60;99.90
57218;DHT22;43078;52.972;6.482;2023-04-03T17:18:32;13.50;99.90
57218;DHT22;43078;52.972;6.482;2023-04-03T17:20:58;13.50;99.90
57218;DHT22;43078;52.972;6.482;2023-04-03T17:23:25;13.50;99.90
57218;DHT22;43078;52.972;6.482;2023-04-03T17:25:51;13.60;99.90
57218;DHT22;43078;52.972;6.482;2023-04-03T17:28:20;13.60;99.90
57218;DHT22;43078;52.972;6.482;2023-04-03T17:30:47;13.60;99.90
57218;DHT22;43078;52.972;6.482;2023-04-03T17:33:13;13.50;99.90
57218;DHT22;43078;52.972;6.482;2023-04-03T17:35:38;13.50;99.90
57218;DHT22;43078;52.972;6.482;2023-04-03T17:38:04;13.50;99.90
57218;DHT22;43078;52.972;6.482;2023-04-03T17:40:30;13.50;99.90
57218;DHT22;43078;52.972;6.482;2023-04-03T17:42:55;13.50;99.90